createdAt,value
2019-05-22T00:04:18.457Z,10.6844
2019-05-22T00:44:59.430Z,10.7004
2019-05-22T01:23:38.538Z,10.5882
2019-05-22T01:33:48.433Z,10.4868
2019-05-22T02:02:18.465Z,10.5135
2019-05-22T02:10:28.438Z,10.4307
2019-05-22T02:38:57.758Z,10.2892
2019-05-22T02:49:08.503Z,10.2491
2019-05-22T03:07:28.461Z,10.2758
2019-05-22T03:17:40.292Z,10.3052
2019-05-22T03:56:20.669Z,10.0515
2019-05-22T03:58:23.430Z,10.0942
2019-05-22T04:02:28.431Z,10.1209
2019-05-22T04:10:41.055Z,10.2331
2019-05-22T04:49:19.502Z,10.5135
2019-05-22T04:57:28.488Z,10.5722
2019-05-22T05:11:48.720Z,10.5882
2019-05-22T05:19:58.528Z,10.6016
2019-05-22T06:00:44.487Z,15.5364
2019-05-22T06:04:49.592Z,16.7433
2019-05-22T06:12:58.472Z,17.9824
2019-05-22T06:17:08.560Z,16.5190
2019-05-22T06:27:18.445Z,13.8487
2019-05-22T06:35:27.771Z,17.4750
2019-05-22T06:45:38.570Z,19.2054
2019-05-22T07:14:08.491Z,14.6365
2019-05-22T07:22:18.823Z,17.4750
2019-05-22T08:11:08.506Z,21.3443
2019-05-22T08:29:29.503Z,23.0026
2019-05-22T08:33:36.021Z,22.4846
2019-05-22T08:39:43.446Z,22.2576
2019-05-22T08:44:13.604Z,22.9892
2019-05-22T08:48:13.916Z,22.4979
2019-05-22T09:19:54.995Z,22.3964
2019-05-22T09:39:32.934Z,25.2403
2019-05-22T09:48:09.633Z,24.8878
2019-05-22T10:00:09.163Z,25.6649
2019-05-22T10:03:01.376Z,24.2977
2019-05-22T10:08:28.025Z,25.1442
2019-05-22T10:19:23.264Z,25.7610
2019-05-22T10:37:23.587Z,25.6489
2019-05-22T10:43:00.726Z,24.9599
2019-05-22T10:46:02.375Z,24.4392
2019-05-22T11:00:20.908Z,24.5808
2019-05-22T11:03:04.813Z,25.1709
2019-05-22T11:06:05.696Z,25.0587
2019-05-22T11:09:00.567Z,24.7330
2019-05-22T11:11:45.480Z,24.6208
2019-05-22T11:14:34.974Z,25.2564
2019-05-22T11:17:18.964Z,25.1442
2019-05-22T11:33:58.808Z,24.8611
2019-05-22T11:42:05.754Z,24.3404
2019-05-22T11:55:45.391Z,24.7623
2019-05-22T12:01:07.447Z,24.3965
2019-05-22T12:11:56.766Z,25.4246
2019-05-22T12:20:03.735Z,25.5207
2019-05-22T12:25:28.835Z,25.5955
2019-05-22T12:28:27.158Z,24.8184
2019-05-22T12:33:54.477Z,26.0574
2019-05-22T12:42:03.273Z,25.3952
2019-05-22T12:44:46.844Z,25.7050
2019-05-22T12:47:56.270Z,25.3819
2019-05-22T12:53:22.862Z,26.0975
2019-05-22T12:58:52.933Z,26.2417
2019-05-22T13:07:32.548Z,23.6088
2019-05-22T13:16:13.699Z,23.3417
2019-05-22T13:19:00.376Z,24.3137
2019-05-22T13:37:56.819Z,23.5233
2019-05-22T13:43:45.718Z,26.1990
2019-05-22T13:49:45.141Z,22.8904
2019-05-22T14:01:27.864Z,23.2429
2019-05-22T14:04:11.850Z,23.8758
2019-05-22T14:06:58.486Z,23.3978
2019-05-22T14:09:57.153Z,23.1735
2019-05-22T14:12:39.759Z,25.0160
2019-05-22T14:15:25.813Z,25.4513
2019-05-22T14:18:22.661Z,24.2416
2019-05-22T14:21:12.697Z,23.6488
2019-05-22T14:23:56.774Z,22.9465
2019-05-22T14:26:39.787Z,24.1161
2019-05-22T14:29:22.850Z,25.9720
2019-05-22T14:35:06.039Z,23.9612
2019-05-22T14:37:49.802Z,25.1575
2019-05-22T14:40:31.778Z,25.9026
2019-05-22T14:43:13.782Z,24.6208
2019-05-22T14:46:02.167Z,23.6355
2019-05-22T14:48:46.762Z,22.9198
2019-05-22T14:51:29.472Z,22.2843
2019-05-22T14:54:12.815Z,22.1027
2019-05-22T14:56:57.680Z,21.6247
2019-05-22T14:59:40.792Z,21.3016
2019-05-22T15:02:24.013Z,22.4685
2019-05-22T15:05:12.792Z,23.8064
2019-05-22T15:07:56.653Z,23.1868
2019-05-22T15:10:40.314Z,22.5113
2019-05-22T15:13:23.868Z,21.7075
2019-05-22T15:16:07.821Z,20.4551
2019-05-22T15:18:50.194Z,20.2869
2019-05-22T15:21:33.942Z,19.7662
2019-05-22T15:28:46.418Z,19.4858
2019-05-22T15:31:29.958Z,19.1600
2019-05-22T15:34:13.971Z,19.1039
2019-05-22T15:37:02.934Z,18.8663
2019-05-22T15:39:47.510Z,18.5298
2019-05-22T15:42:57.241Z,18.4176
2019-05-22T15:49:12.406Z,18.9090
2019-05-22T15:52:02.674Z,19.6406
2019-05-22T15:54:45.886Z,19.9077
2019-05-22T15:57:30.108Z,19.4591
2019-05-22T16:00:19.344Z,19.8222
2019-05-22T16:03:26.916Z,19.7234
2019-05-22T16:06:10.867Z,19.1760
2019-05-22T16:08:55.008Z,19.6406
2019-05-22T16:11:38.966Z,19.9210
2019-05-22T16:14:22.882Z,20.3029
2019-05-22T16:17:07.751Z,20.6954
2019-05-22T16:19:52.327Z,21.4004
2019-05-22T16:22:36.182Z,21.4431
2019-05-22T16:25:20.778Z,21.3710
2019-05-22T16:28:06.308Z,20.9918
2019-05-22T16:31:00.495Z,22.4979
2019-05-22T16:33:55.203Z,23.1868
2019-05-22T16:36:39.958Z,23.3124
2019-05-22T16:39:29.226Z,23.9185
2019-05-22T16:42:12.040Z,22.9892
2019-05-22T16:44:57.416Z,22.7649
2019-05-22T16:51:23.134Z,23.3124
2019-05-22T16:54:06.760Z,24.1295
2019-05-22T16:56:48.817Z,23.8918
2019-05-22T16:59:36.609Z,23.4245
2019-05-22T17:02:19.955Z,23.7503
2019-05-22T17:05:03.920Z,22.9038
2019-05-22T17:07:47.798Z,22.8637
2019-05-22T17:10:39.890Z,22.9892
2019-05-22T17:13:31.504Z,22.9332
2019-05-22T17:16:13.895Z,22.6394
2019-05-22T17:19:27.772Z,22.5673
2019-05-22T17:22:12.851Z,22.3564
2019-05-22T17:24:55.930Z,21.2562
2019-05-22T17:31:37.299Z,20.3990
2019-05-22T17:34:20.804Z,21.3710
2019-05-22T17:37:14.911Z,21.3016
2019-05-22T17:39:59.756Z,21.1868
2019-05-22T17:42:42.267Z,20.7515
2019-05-22T17:45:28.714Z,20.7809
2019-05-22T17:48:11.500Z,20.5539
2019-05-22T17:50:54.751Z,20.3029
2019-05-22T17:53:37.852Z,20.2869
2019-05-22T17:56:50.957Z,20.2041
2019-05-22T17:59:53.031Z,19.5418
2019-05-22T18:02:47.468Z,18.8663
2019-05-22T18:05:32.506Z,18.3909
2019-05-22T18:08:22.256Z,17.8569
2019-05-22T18:11:07.437Z,17.2774
2019-05-22T18:13:49.941Z,16.5885
2019-05-22T18:16:34.118Z,15.8301
2019-05-22T18:19:25.888Z,15.5203
2019-05-22T18:22:10.729Z,14.9863
2019-05-22T18:24:54.648Z,14.4228
2019-05-22T18:27:38.999Z,13.8621
2019-05-22T18:30:23.374Z,13.3974
2019-05-22T18:33:07.286Z,13.0049
2019-05-22T18:35:51.436Z,12.6097
2019-05-22T18:38:34.964Z,12.5135
2019-05-22T18:41:18.846Z,12.3026
2019-05-22T18:44:01.968Z,11.9207
2019-05-22T18:46:45.802Z,11.7391
2019-05-22T18:49:28.859Z,11.5576
2019-05-22T18:52:11.856Z,11.4027
2019-05-22T18:54:54.823Z,11.1330
2019-05-22T18:57:37.826Z,10.9087
2019-05-22T19:00:20.862Z,10.6710
2019-05-22T19:03:03.814Z,10.5135
2019-05-22T19:05:46.795Z,10.3880
2019-05-22T19:08:28.781Z,10.2491
2019-05-22T19:11:11.892Z,10.1369
2019-05-22T19:13:55.889Z,10.1076
2019-05-22T19:16:39.833Z,9.9687
2019-05-22T19:19:25.867Z,10.0515
2019-05-22T19:22:14.361Z,10.3880
2019-05-22T19:24:57.956Z,10.7004
2019-05-22T19:27:44.628Z,11.0929
2019-05-22T19:30:27.994Z,11.5015
2019-05-22T19:33:14.883Z,11.6697
2019-05-22T19:36:00.642Z,11.8647
2019-05-22T19:38:44.741Z,12.1344
2019-05-22T19:41:27.830Z,12.1611
2019-05-22T19:44:12.640Z,12.2599
2019-05-22T19:46:55.559Z,12.4281
2019-05-22T19:49:38.478Z,12.3854
2019-05-22T19:52:22.779Z,12.4014
2019-05-22T19:55:09.676Z,12.2732
2019-05-22T19:57:52.539Z,12.2599
2019-05-22T20:00:35.873Z,12.0195
2019-05-22T20:03:20.265Z,12.0062
2019-05-22T20:06:03.826Z,11.7952
2019-05-22T20:08:48.048Z,11.6270
2019-05-22T20:11:31.856Z,11.5576
2019-05-22T20:14:15.219Z,11.3146
2019-05-22T20:16:58.833Z,11.1196
2019-05-22T20:19:41.919Z,11.0636
2019-05-22T20:22:25.842Z,11.0929
2019-05-22T20:25:09.034Z,11.1624
2019-05-22T20:27:53.022Z,11.0075
2019-05-22T20:30:36.553Z,10.8820
2019-05-22T20:33:19.564Z,10.6577
2019-05-22T20:36:02.560Z,10.4440
2019-05-22T20:38:45.577Z,10.2197
2019-05-22T20:41:28.535Z,9.8833
2019-05-22T20:44:12.384Z,9.4747
2019-05-22T20:46:55.657Z,9.2931
2019-05-22T20:49:38.591Z,9.0688
2019-05-22T20:52:21.827Z,8.7991
2019-05-22T20:55:04.491Z,8.6870
2019-05-22T20:57:48.494Z,8.5908
2019-05-22T21:00:31.658Z,8.4066
2019-05-22T21:03:15.454Z,8.2544
2019-05-22T21:06:02.282Z,8.1689
2019-05-22T21:08:46.973Z,8.0995
2019-05-22T21:11:32.445Z,8.0568
2019-05-22T21:14:18.319Z,7.9873
2019-05-22T21:17:03.621Z,7.8325
2019-05-22T21:19:47.795Z,7.6909
2019-05-22T21:22:31.262Z,7.6482
2019-05-22T21:25:15.413Z,7.7043
2019-05-22T21:27:59.044Z,7.7310
2019-05-22T21:30:42.436Z,7.8458
2019-05-22T21:33:26.418Z,8.0701
2019-05-22T21:36:09.484Z,8.2116
2019-05-22T21:38:52.591Z,8.4493
2019-05-22T21:41:35.482Z,8.6603
2019-05-22T21:44:18.787Z,8.9994
2019-05-22T21:47:01.570Z,9.1516
2019-05-22T21:49:44.608Z,9.2237
2019-05-22T21:52:27.516Z,9.2370
2019-05-22T21:55:10.679Z,9.2237
2019-05-22T21:57:53.470Z,9.2077
2019-05-22T22:00:36.587Z,9.2237
2019-05-22T22:03:19.887Z,9.2077
2019-05-22T22:06:03.641Z,9.2798
2019-05-22T22:08:46.466Z,9.2237
2019-05-22T22:11:30.258Z,9.1249
2019-05-22T22:14:13.674Z,9.1249
2019-05-22T22:16:57.126Z,9.0555
2019-05-22T22:19:41.407Z,9.0127
2019-05-22T22:22:25.655Z,9.0261
2019-05-22T22:25:10.305Z,9.0261
2019-05-22T22:27:53.451Z,9.0261
2019-05-22T22:30:37.710Z,9.0394
2019-05-22T22:33:21.733Z,8.9834
2019-05-22T22:36:04.270Z,8.8712
2019-05-22T22:38:48.733Z,8.6870
2019-05-22T22:41:33.345Z,8.4359
2019-05-22T22:44:17.202Z,8.0301
2019-05-22T22:47:01.268Z,7.7310
2019-05-22T22:49:45.790Z,7.4506
2019-05-22T22:52:29.274Z,7.1569
2019-05-22T22:55:12.542Z,6.9619
2019-05-22T22:57:55.266Z,6.7243
2019-05-22T23:00:40.471Z,6.5534
2019-05-22T23:03:24.867Z,6.3985
2019-05-22T23:06:09.607Z,6.1742
2019-05-22T23:08:53.721Z,6.1608
2019-05-22T23:15:07.162Z,6.2863
2019-05-22T23:17:51.409Z,6.3985
2019-05-22T23:20:36.899Z,6.4412
2019-05-22T23:23:22.004Z,6.5373
2019-05-22T23:26:06.501Z,6.4973
2019-05-22T23:28:55.077Z,6.5106
2019-05-22T23:31:39.494Z,6.6682
2019-05-22T23:34:22.198Z,6.7510
2019-05-22T23:37:06.242Z,6.8204
2019-05-22T23:39:50.273Z,6.7082
2019-05-22T23:42:33.776Z,6.7243
2019-05-22T23:45:16.604Z,6.7937
2019-05-22T23:47:59.517Z,6.8204
2019-05-22T23:50:42.524Z,6.8925
2019-05-22T23:53:25.761Z,6.8925
2019-05-22T23:56:10.090Z,6.8364
2019-05-22T23:58:54.735Z,6.8364
